Time;durP1;ratioP1;P1;durP2;ratioP2;P2;SDS_P1;SDS_P2;PMS_P1;PMS_P2;Temp;Humidity;BMP_temperature;BMP_pressure;BME280_temperature;BME280_humidity;BME280_pressure;Samples;Min_cycle;Max_cycle;Signal;HPM_P1;HPM_P2
2021/05/15 00:01:32;;;;;;;20.57;7.57;;;;;;;10.47;73.70;98140.13;2042741;87;21021;-63
2021/05/15 00:04:34;;;;;;;20.80;7.20;;;;;;;10.46;73.72;98137.17;2079885;85;21036;-63
2021/05/15 00:07:35;;;;;;;20.60;7.10;;;;;;;10.45;73.64;98140.73;2079674;86;21659;-63
2021/05/15 00:10:37;;;;;;;23.57;7.73;;;;;;;10.47;73.64;98140.62;2042828;87;21016;-63
2021/05/15 00:13:38;;;;;;;20.30;7.40;;;;;;;10.45;73.54;98142.52;2079473;85;21654;-63
2021/05/15 00:16:40;;;;;;;19.60;7.30;;;;;;;10.43;73.64;98143.09;2079452;86;21105;-62
2021/05/15 00:19:41;;;;;;;22.32;7.37;;;;;;;10.38;73.66;98146.88;2079537;86;21032;-63
2021/05/15 00:22:42;;;;;;;21.37;7.33;;;;;;;10.33;73.71;98143.73;2079401;86;21630;-63
2021/05/15 00:25:44;;;;;;;23.32;7.45;;;;;;;10.21;74.60;98149.81;2079564;86;21025;-63
2021/05/15 00:28:45;;;;;;;20.30;7.62;;;;;;;10.08;74.24;98149.02;2079406;86;21060;-62
2021/05/15 00:31:47;;;;;;;22.33;7.73;;;;;;;9.97;74.87;98149.74;2042911;87;21021;-63
2021/05/15 00:34:48;;;;;;;20.43;7.33;;;;;;;9.84;75.91;98153.23;2042908;87;21045;-62
2021/05/15 00:37:50;;;;;;;21.00;8.10;;;;;;;9.74;76.52;98158.73;2079687;85;21120;-63
2021/05/15 00:40:51;;;;;;;20.60;7.43;;;;;;;9.66;76.24;98151.38;2079783;86;21013;-65
2021/05/15 00:46:56;;;;;;;20.25;7.53;;;;;;;9.57;76.62;98164.25;2009903;88;21655;-65
2021/05/15 00:49:58;;;;;;;23.40;7.28;;;;;;;9.50;76.62;98163.84;2028279;88;21084;-62
2021/05/15 00:52:59;;;;;;;21.47;7.70;;;;;;;9.47;76.92;98162.75;2028497;88;21619;-62
2021/05/15 00:56:00;;;;;;;20.17;7.72;;;;;;;9.41;76.93;98163.13;2028598;87;21065;-63
2021/05/15 00:59:02;;;;;;;23.10;8.38;;;;;;;9.34;76.62;98158.31;2028343;88;21041;-63
2021/05/15 01:02:04;;;;;;;23.27;8.15;;;;;;;9.33;77.07;98163.66;2028363;88;21082;-64
2021/05/15 01:05:05;;;;;;;24.57;8.55;;;;;;;9.27;76.95;98162.77;2028723;88;21109;-62
2021/05/15 01:08:07;;;;;;;21.00;7.75;;;;;;;9.21;77.25;98163.14;2028229;88;21572;-65
2021/05/15 01:11:08;;;;;;;22.42;7.95;;;;;;;9.14;77.33;98171.89;2028320;88;21078;-63
2021/05/15 01:14:10;;;;;;;20.72;7.75;;;;;;;9.13;77.68;98171.52;2028170;88;21065;-63
2021/05/15 01:17:11;;;;;;;19.77;7.42;;;;;;;9.10;77.97;98170.41;2028489;88;21124;-62
2021/05/15 01:20:13;;;;;;;20.43;7.05;;;;;;;9.14;77.19;98173.20;2028535;88;21061;-62
2021/05/15 01:23:14;;;;;;;20.40;7.33;;;;;;;9.17;76.71;98171.20;2028339;88;21061;-63
2021/05/15 01:26:15;;;;;;;23.65;7.53;;;;;;;9.22;76.78;98168.76;2028316;88;21041;-67
2021/05/15 01:29:17;;;;;;;21.52;7.12;;;;;;;9.26;76.49;98168.45;2028176;88;21535;-65
2021/05/15 01:32:18;;;;;;;21.02;7.37;;;;;;;9.33;77.23;98170.20;2028346;88;21093;-63
2021/05/15 01:35:20;;;;;;;20.00;7.75;;;;;;;9.33;76.89;98166.27;2028427;88;21057;-62
2021/05/15 01:38:21;;;;;;;20.95;7.20;;;;;;;9.35;77.16;98166.55;2028140;88;21102;-62
2021/05/15 01:41:23;;;;;;;24.52;8.10;;;;;;;9.35;77.34;98165.23;2028323;88;21037;-65
2021/05/15 01:44:24;;;;;;;19.62;7.15;;;;;;;9.38;77.66;98158.97;2030440;88;21627;-66
2021/05/15 01:47:25;;;;;;;21.80;7.70;;;;;;;9.39;77.84;98161.93;2033331;87;21041;-64
2021/05/15 01:50:27;;;;;;;21.37;7.65;;;;;;;9.39;78.02;98161.93;2033430;87;21021;-63
2021/05/15 01:53:28;;;;;;;21.82;6.95;;;;;;;9.32;77.36;98162.83;2033085;87;21753;-65
2021/05/15 01:56:30;;;;;;;20.30;7.40;;;;;;;9.26;77.64;98162.39;2033181;87;21002;-65
2021/05/15 01:59:31;;;;;;;19.90;7.28;;;;;;;9.25;77.12;98168.55;2033055;87;21010;-63
2021/05/15 02:02:32;;;;;;;21.60;7.47;;;;;;;9.21;77.20;98165.77;2033357;87;21116;-64
2021/05/15 02:05:34;;;;;;;20.48;7.28;;;;;;;9.23;77.01;98162.59;2033232;87;21016;-64
2021/05/15 02:08:35;;;;;;;21.37;6.92;;;;;;;9.22;76.96;98167.45;2033083;87;21560;-63
2021/05/15 02:11:39;;;;;;;21.70;6.45;;;;;;;9.26;76.75;98168.92;2033211;87;21017;-62
2021/05/15 02:14:40;;;;;;;19.75;7.37;;;;;;;9.26;76.78;98171.06;2033333;87;21046;-62
2021/05/15 02:17:41;;;;;;;22.10;8.05;;;;;;;9.27;76.84;98174.06;2033610;87;21607;-65
2021/05/15 02:20:43;;;;;;;21.50;7.90;;;;;;;9.27;76.74;98175.37;2033355;87;21021;-62
2021/05/15 02:23:44;;;;;;;20.92;7.70;;;;;;;9.25;77.23;98182.49;2033346;87;21024;-62
2021/05/15 02:26:46;;;;;;;20.50;7.75;;;;;;;9.18;76.78;98180.73;2033457;87;21032;-63
2021/05/15 02:29:47;;;;;;;21.30;7.58;;;;;;;9.16;76.88;98179.98;2033520;87;21017;-62
2021/05/15 02:32:49;;;;;;;20.10;7.30;;;;;;;9.22;76.68;98184.45;2033185;87;21594;-62
2021/05/15 02:35:50;;;;;;;21.90;7.20;;;;;;;9.22;76.65;98177.91;2033294;87;21037;-62
2021/05/15 02:38:51;;;;;;;21.93;7.33;;;;;;;9.22;76.70;98182.67;2033255;87;21032;-64
2021/05/15 02:41:53;;;;;;;19.57;7.13;;;;;;;9.25;76.51;98181.63;2033686;87;21033;-62
2021/05/15 02:44:54;;;;;;;20.37;7.35;;;;;;;9.27;76.73;98183.70;2038417;87;21057;-64
2021/05/15 02:47:56;;;;;;;20.75;7.55;;;;;;;9.32;76.49;98184.22;2042462;87;21629;-65
2021/05/15 02:50:58;;;;;;;20.57;7.12;;;;;;;9.31;76.43;98186.45;2079509;85;21057;-63
2021/05/15 02:53:59;;;;;;;21.52;7.62;;;;;;;9.31;76.34;98184.70;2079662;86;21148;-64
2021/05/15 02:57:01;;;;;;;21.02;7.80;;;;;;;9.29;76.27;98191.79;2079300;86;21045;-62
2021/05/15 03:00:02;;;;;;;20.10;7.37;;;;;;;9.20;76.40;98200.27;2079400;86;21112;-63
2021/05/15 03:03:03;;;;;;;22.67;7.47;;;;;;;9.17;77.13;98203.91;2079375;86;21567;-63
2021/05/15 03:06:05;;;;;;;22.55;7.42;;;;;;;9.16;76.69;98201.39;2079487;86;21101;-63
2021/05/15 03:09:06;;;;;;;21.17;8.13;;;;;;;9.20;76.49;98205.49;2079427;86;21095;-64
2021/05/15 03:12:08;;;;;;;21.23;7.53;;;;;;;9.27;76.65;98203.33;2079740;86;21037;-62
2021/05/15 03:15:11;;;;;;;22.80;7.63;;;;;;;9.28;76.36;98205.84;2042807;87;21068;-62
2021/05/15 03:18:13;;;;;;;22.48;7.95;;;;;;;9.26;76.38;98212.94;2079615;85;21050;-62
2021/05/15 03:21:14;;;;;;;24.15;8.23;;;;;;;9.25;76.28;98219.13;2079646;86;21040;-63
2021/05/15 03:24:15;;;;;;;23.00;8.18;;;;;;;9.38;76.39;98211.77;2079652;86;21096;-62
2021/05/15 03:27:17;;;;;;;21.45;7.97;;;;;;;9.44;76.23;98212.20;2079601;86;21024;-64
2021/05/15 03:30:18;;;;;;;21.75;8.25;;;;;;;9.60;76.59;98220.36;2079485;86;21754;-63
2021/05/15 03:33:20;;;;;;;23.62;8.63;;;;;;;9.68;76.53;98216.28;2079580;86;21020;-63
2021/05/15 03:36:22;;;;;;;24.15;8.43;;;;;;;9.71;76.56;98213.91;2079452;86;21567;-63
2021/05/15 03:39:23;;;;;;;24.20;9.10;;;;;;;9.75;76.54;98213.25;2079687;86;21025;-64
2021/05/15 03:42:26;;;;;;;22.07;8.08;;;;;;;9.77;76.70;98215.28;2079770;85;21012;-64
2021/05/15 03:45:27;;;;;;;22.85;8.75;;;;;;;9.75;76.44;98211.94;2072212;85;21086;-63
2021/05/15 03:48:28;;;;;;;24.80;9.18;;;;;;;9.82;76.51;98221.06;2067768;86;21568;-63
2021/05/15 03:51:30;;;;;;;21.93;8.33;;;;;;;9.97;76.25;98210.00;2068051;86;21050;-63
2021/05/15 03:54:31;;;;;;;23.30;9.38;;;;;;;10.18;76.48;98216.87;2068133;86;21081;-63
2021/05/15 03:57:33;;;;;;;23.00;9.50;;;;;;;10.41;76.14;98223.16;2067790;86;21530;-63
2021/05/15 04:00:34;;;;;;;23.67;9.23;;;;;;;10.54;75.70;98225.31;2068066;86;21112;-62
2021/05/15 04:03:36;;;;;;;22.93;9.25;;;;;;;10.68;75.74;98224.31;2067823;86;21065;-62
2021/05/15 04:06:37;;;;;;;24.05;9.35;;;;;;;10.81;75.63;98225.59;2067951;86;21108;-64
2021/05/15 04:09:38;;;;;;;23.80;9.95;;;;;;;10.85;75.86;98227.05;2067913;86;21085;-62
2021/05/15 04:12:48;;;;;;;23.60;10.13;;;;;;;10.96;75.69;98228.06;2067800;86;21022;-62
2021/05/15 04:15:50;;;;;;;23.15;9.55;;;;;;;11.09;75.76;98231.46;2048805;86;21647;-63
2021/05/15 04:18:46;;;;;;;25.05;10.00;;;;;;;11.26;75.71;98232.41;2009915;88;21532;-62
2021/05/15 04:21:50;;;;;;;26.07;10.82;;;;;;;11.39;75.72;98231.03;2028517;88;21128;-64
2021/05/15 04:24:51;;;;;;;26.17;10.58;;;;;;;11.47;75.60;98225.69;2028873;88;21002;-62
2021/05/15 04:27:52;;;;;;;24.80;10.38;;;;;;;11.54;75.56;98226.91;2028732;88;21101;-63
2021/05/15 04:30:54;;;;;;;23.77;10.35;;;;;;;11.63;75.79;98228.83;2028558;88;21634;-63
2021/05/15 04:33:55;;;;;;;28.27;11.22;;;;;;;11.81;75.54;98227.94;2028819;88;21121;-63
2021/05/15 04:36:57;;;;;;;24.43;10.97;;;;;;;12.03;75.19;98235.53;2028581;88;21025;-63
2021/05/15 04:39:59;;;;;;;27.87;11.28;;;;;;;12.04;74.61;98236.73;2028604;88;21180;-63
2021/05/15 04:43:00;;;;;;;27.45;11.30;;;;;;;12.07;75.63;98223.34;2028726;88;21029;-63
2021/05/15 04:46:02;;;;;;;27.27;11.33;;;;;;;12.35;74.60;98227.78;2028509;87;21603;-63
2021/05/15 04:49:03;;;;;;;27.40;12.50;;;;;;;12.56;74.64;98223.95;2013154;88;21073;-63
2021/05/15 04:52:05;;;;;;;27.98;12.55;;;;;;;12.77;73.71;98228.01;2012902;88;21176;-62
2021/05/15 04:55:06;;;;;;;29.27;13.57;;;;;;;12.68;73.43;98237.92;2013015;88;21093;-62
2021/05/15 04:58:08;;;;;;;29.40;13.00;;;;;;;12.73;73.93;98236.23;2013026;88;21194;-62
2021/05/15 05:01:09;;;;;;;28.60;12.30;;;;;;;12.98;74.22;98231.19;2013016;88;21580;-63
2021/05/15 05:04:11;;;;;;;29.77;13.17;;;;;;;12.98;72.83;98237.77;2013160;88;21116;-68
2021/05/15 05:07:12;;;;;;;27.70;12.30;;;;;;;13.15;73.14;98237.23;2013002;88;21757;-63
2021/05/15 05:13:17;;;;;;;29.00;13.05;;;;;;;13.78;71.98;98235.71;1993058;88;21053;-68
2021/05/15 05:16:18;;;;;;;31.10;14.40;;;;;;;13.94;71.76;98240.03;2013224;88;21205;-62
2021/05/15 05:19:20;;;;;;;30.08;13.72;;;;;;;14.23;70.30;98242.50;2012983;88;21053;-66
2021/05/15 05:22:21;;;;;;;30.60;13.23;;;;;;;14.53;69.07;98244.30;2013246;88;21125;-66
2021/05/15 05:25:23;;;;;;;32.25;14.70;;;;;;;14.58;69.44;98238.11;2013120;88;21109;-68
2021/05/15 05:28:32;;;;;;;32.27;14.37;;;;;;;14.77;69.11;98243.14;2013248;88;21120;-68
2021/05/15 05:31:28;;;;;;;30.80;13.38;;;;;;;14.66;68.44;98240.97;1993034;88;21026;-66
2021/05/15 05:34:31;;;;;;;29.63;13.60;;;;;;;14.54;68.69;98250.76;2013439;88;21037;-66
2021/05/15 05:37:33;;;;;;;35.78;14.95;;;;;;;14.47;68.09;98252.75;2012844;88;21466;-64
2021/05/15 05:40:34;;;;;;;33.17;15.53;;;;;;;14.28;68.69;98256.97;2013129;88;21093;-64
2021/05/15 05:43:36;;;;;;;33.30;15.00;;;;;;;14.16;69.58;98254.04;2013255;88;21862;-67
2021/05/15 05:46:37;;;;;;;31.67;15.00;;;;;;;14.18;68.85;98260.04;2014742;87;21642;-63
2021/05/15 05:49:39;;;;;;;36.70;16.25;;;;;;;13.95;68.61;98258.00;2014984;88;22306;-62
2021/05/15 05:52:40;;;;;;;35.93;16.73;;;;;;;13.76;69.80;98270.07;2015274;88;21044;-64
2021/05/15 05:55:42;;;;;;;35.08;17.20;;;;;;;13.84;69.28;98261.55;2015081;88;21064;-66
2021/05/15 05:58:49;;;;;;;38.13;18.20;;;;;;;14.02;69.47;98269.70;1992515;88;21650;-63
2021/05/15 06:01:50;;;;;;;33.73;15.67;;;;;;;14.24;68.28;98270.05;1991913;88;21041;-63
2021/05/15 06:04:52;;;;;;;32.13;15.35;;;;;;;14.40;69.31;98262.98;1982895;88;21144;-66
2021/05/15 06:07:53;;;;;;;33.03;15.47;;;;;;;14.87;68.93;98270.44;1981845;88;21030;-64
2021/05/15 06:10:55;;;;;;;34.87;16.00;;;;;;;15.35;67.68;98264.39;1982147;90;22362;-64
2021/05/15 06:13:56;;;;;;;33.17;15.70;;;;;;;15.65;67.32;98270.53;1982269;90;21098;-63
2021/05/15 06:16:57;;;;;;;34.00;15.03;;;;;;;16.00;66.86;98268.31;1982293;90;21101;-63
2021/05/15 06:20:00;;;;;;;33.50;15.30;;;;;;;16.03;63.05;98274.16;1982064;90;21137;-63
2021/05/15 06:23:01;;;;;;;30.90;14.95;;;;;;;16.05;65.72;98271.37;1982040;90;21168;-64
2021/05/15 06:26:08;;;;;;;31.10;13.95;;;;;;;16.41;65.36;98274.21;1982036;90;21065;-68
2021/05/15 06:29:06;;;;;;;27.27;12.70;;;;;;;16.49;63.07;98273.48;1959393;90;21152;-65
2021/05/15 06:32:09;;;;;;;29.17;12.73;;;;;;;16.55;63.75;98272.42;1982280;90;21074;-64
2021/05/15 06:35:11;;;;;;;26.77;11.88;;;;;;;16.79;61.65;98278.53;1981862;90;21160;-63
2021/05/15 06:38:12;;;;;;;26.83;10.33;;;;;;;16.84;63.13;98267.48;1982021;90;21583;-64
2021/05/15 06:41:14;;;;;;;25.13;11.07;;;;;;;16.72;59.46;98280.56;1982162;90;21870;-63
2021/05/15 06:44:15;;;;;;;22.98;9.78;;;;;;;16.45;61.95;98278.24;1982304;90;21519;-63
2021/05/15 06:47:17;;;;;;;27.67;10.00;;;;;;;16.05;60.00;98276.67;1994736;88;21745;-65
2021/05/15 06:50:19;;;;;;;26.00;9.53;;;;;;;15.92;61.68;98276.96;1994500;89;21182;-66
2021/05/15 06:53:21;;;;;;;25.00;10.00;;;;;;;16.09;62.52;98279.34;1979735;90;21061;-64
2021/05/15 06:56:22;;;;;;;21.57;8.63;;;;;;;16.30;63.77;98280.49;1979599;90;21611;-65
2021/05/15 06:59:24;;;;;;;22.65;8.53;;;;;;;16.44;62.12;98280.03;1994667;89;21146;-63
2021/05/15 07:02:25;;;;;;;23.02;8.55;;;;;;;16.69;60.88;98283.00;1994573;89;21559;-65
2021/05/15 07:05:27;;;;;;;20.23;6.80;;;;;;;16.72;58.74;98281.42;1994667;89;21151;-64
2021/05/15 07:08:29;;;;;;;19.10;7.20;;;;;;;16.87;58.58;98272.48;1994535;89;21076;-65
2021/05/15 07:11:31;;;;;;;21.10;7.87;;;;;;;16.78;56.62;98280.00;1979671;90;21081;-65
2021/05/15 07:14:32;;;;;;;22.90;7.12;;;;;;;16.55;58.13;98276.39;1994531;89;21143;-66
2021/05/15 07:17:34;;;;;;;22.40;7.75;;;;;;;16.51;57.91;98283.45;1979552;90;21069;-63
2021/05/15 07:20:35;;;;;;;20.25;6.62;;;;;;;17.03;60.06;98285.11;1994661;89;21056;-68
2021/05/15 07:23:37;;;;;;;20.23;6.35;;;;;;;17.11;56.11;98294.97;1979558;90;21584;-65
2021/05/15 07:26:38;;;;;;;20.35;7.40;;;;;;;16.88;57.08;98294.05;1994563;89;21044;-64
2021/05/15 07:29:39;;;;;;;20.55;6.58;;;;;;;17.06;56.38;98288.79;1979690;90;21076;-66
2021/05/15 07:32:41;;;;;;;16.02;5.62;;;;;;;17.00;57.17;98283.27;1994542;89;21047;-66
2021/05/15 07:35:43;;;;;;;17.37;6.33;;;;;;;17.06;56.65;98286.64;1994525;89;21088;-64
2021/05/15 07:38:46;;;;;;;18.55;5.90;;;;;;;17.10;56.77;98286.70;1979695;90;21077;-65
2021/05/15 07:41:48;;;;;;;16.82;5.37;;;;;;;17.56;57.16;98279.55;1976859;89;21115;-63
2021/05/15 07:44:49;;;;;;;19.17;5.78;;;;;;;17.66;54.87;98272.34;1994716;88;21139;-64
2021/05/15 07:47:50;;;;;;;19.10;6.75;;;;;;;17.18;55.45;98281.97;1979658;90;21606;-66
2021/05/15 07:50:52;;;;;;;19.92;6.45;;;;;;;17.62;55.36;98274.12;1994640;89;21116;-64
2021/05/15 07:53:54;;;;;;;17.52;5.83;;;;;;;17.85;54.85;98271.83;1979736;90;21181;-63
2021/05/15 07:56:55;;;;;;;19.20;5.72;;;;;;;17.86;53.59;98282.80;1994750;89;21180;-67
2021/05/15 07:59:57;;;;;;;19.25;6.15;;;;;;;17.47;54.05;98275.16;1979662;90;21544;-66
2021/05/15 08:02:58;;;;;;;16.80;6.00;;;;;;;17.11;54.72;98284.36;1994670;89;21138;-64
2021/05/15 08:06:00;;;;;;;19.17;6.20;;;;;;;16.84;54.41;98288.67;1994465;89;21072;-64
2021/05/15 08:09:02;;;;;;;20.80;6.95;;;;;;;16.61;55.57;98278.45;1969081;90;21113;-65
2021/05/15 08:12:03;;;;;;;17.82;6.00;;;;;;;17.40;54.68;98269.62;1949587;91;21109;-65
2021/05/15 08:15:05;;;;;;;19.02;6.05;;;;;;;18.11;54.97;98277.19;1949817;91;21226;-65
2021/05/15 08:18:07;;;;;;;17.45;5.45;;;;;;;17.93;53.12;98275.92;1950834;91;21074;-64
2021/05/15 08:21:08;;;;;;;22.40;6.33;;;;;;;17.93;51.05;98281.22;1950999;90;21097;-66
2021/05/15 08:24:10;;;;;;;17.80;5.50;;;;;;;18.02;52.90;98279.46;1950850;91;21062;-64
2021/05/15 08:27:11;;;;;;;15.93;5.15;;;;;;;17.79;51.74;98284.39;1950948;90;21110;-65
2021/05/15 08:30:15;;;;;;;17.90;5.78;;;;;;;17.38;51.16;98298.07;1950865;91;21631;-67
2021/05/15 08:33:16;;;;;;;16.62;5.33;;;;;;;17.16;53.00;98295.36;1930474;91;21608;-67
2021/05/15 08:36:18;;;;;;;19.45;5.53;;;;;;;17.42;52.50;98290.16;1950901;91;21198;-64
2021/05/15 08:39:19;;;;;;;17.42;5.72;;;;;;;18.38;53.56;98286.01;1950834;91;21089;-68
2021/05/15 08:42:20;;;;;;;15.13;5.42;;;;;;;19.01;49.04;98277.39;1950860;91;21057;-65
2021/05/15 08:45:22;;;;;;;15.70;5.00;;;;;;;19.47;49.17;98272.51;1954835;89;21098;-66
2021/05/15 08:48:23;;;;;;;16.40;4.97;;;;;;;19.97;50.22;98279.20;2000999;88;21094;-69
2021/05/15 08:51:25;;;;;;;17.37;5.15;;;;;;;19.13;46.38;98284.56;1968145;90;21041;-64
2021/05/15 08:54:26;;;;;;;14.98;4.87;;;;;;;18.84;49.91;98293.22;2001091;89;21104;-64
2021/05/15 08:57:28;;;;;;;18.73;5.35;;;;;;;18.52;48.53;98285.42;1967972;90;21639;-65
2021/05/15 09:00:29;;;;;;;16.27;5.05;;;;;;;18.96;49.39;98291.13;2001073;88;21060;-64
2021/05/15 09:03:31;;;;;;;20.37;5.90;;;;;;;19.67;47.14;98288.17;1967935;90;21084;-67
2021/05/15 09:06:32;;;;;;;18.95;5.97;;;;;;;20.29;48.64;98289.52;2000926;88;21080;-67
2021/05/15 09:09:34;;;;;;;16.02;5.20;;;;;;;20.28;44.95;98295.83;1968222;90;21085;-71
2021/05/15 09:12:36;;;;;;;17.00;5.45;;;;;;;20.50;47.07;98288.95;2001013;88;21559;-73
2021/05/15 09:15:37;;;;;;;16.57;5.15;;;;;;;20.38;45.80;98283.98;1968011;90;21085;-67
2021/05/15 09:18:40;;;;;;;15.93;4.90;;;;;;;20.30;44.96;98284.50;2001203;88;21093;-65
2021/05/15 09:21:41;;;;;;;15.83;4.95;;;;;;;19.99;44.83;98295.34;1967883;90;21084;-71
2021/05/15 09:24:43;;;;;;;15.93;4.70;;;;;;;19.90;44.82;98295.03;2000878;88;21068;-68
2021/05/15 09:27:44;;;;;;;15.23;4.75;;;;;;;19.88;46.94;98291.20;1967982;90;21069;-65
2021/05/15 09:30:46;;;;;;;14.33;4.53;;;;;;;19.76;45.92;98293.00;2000929;89;21100;-70
2021/05/15 09:33:47;;;;;;;15.85;5.08;;;;;;;19.43;48.24;98297.76;1967888;90;21560;-67
2021/05/15 09:36:51;;;;;;;14.93;5.17;;;;;;;19.91;46.74;98291.34;2000975;88;21088;-67
2021/05/15 09:39:52;;;;;;;17.35;4.78;;;;;;;20.24;46.12;98287.34;1967873;90;21112;-66
2021/05/15 09:42:54;;;;;;;15.20;4.90;;;;;;;20.02;44.53;98300.84;2000840;88;21084;-65
2021/05/15 09:45:55;;;;;;;12.30;4.20;;;;;;;20.11;45.67;98298.50;1966888;90;21077;-66
2021/05/15 09:48:57;;;;;;;14.90;4.70;;;;;;;19.97;44.46;98296.50;1996233;89;21061;-65
2021/05/15 09:52:00;;;;;;;14.38;4.62;;;;;;;20.17;43.24;98295.66;1981182;90;21377;-68
2021/05/15 09:55:01;;;;;;;17.05;5.00;;;;;;;20.99;44.64;98286.66;1996079;89;21113;-65
2021/05/15 09:58:03;;;;;;;13.08;4.08;;;;;;;21.15;45.06;98285.26;1981172;90;21118;-68
2021/05/15 10:01:04;;;;;;;15.55;4.75;;;;;;;21.18;43.16;98281.42;1996303;89;21033;-64
2021/05/15 10:04:06;;;;;;;11.28;3.90;;;;;;;21.21;44.37;98280.55;1981283;90;21562;-65
2021/05/15 10:07:07;;;;;;;11.65;3.60;;;;;;;21.22;43.14;98289.38;1996296;89;21045;-65
2021/05/15 10:10:09;;;;;;;11.03;3.75;;;;;;;20.90;43.04;98305.84;1981179;90;21149;-65
2021/05/15 10:13:10;;;;;;;12.43;4.00;;;;;;;20.30;42.79;98298.66;1996088;89;21077;-65
2021/05/15 10:16:11;;;;;;;14.33;3.75;;;;;;;20.01;43.87;98296.03;1981207;90;21166;-70
2021/05/15 10:19:14;;;;;;;11.80;3.80;;;;;;;20.00;45.61;98294.36;1996072;89;21567;-66
2021/05/15 10:22:15;;;;;;;10.40;3.45;;;;;;;20.23;43.78;98282.52;1963273;90;21089;-68
2021/05/15 10:25:17;;;;;;;10.65;3.45;;;;;;;20.33;43.90;98282.83;1996028;89;21536;-64
2021/05/15 10:28:18;;;;;;;11.03;4.08;;;;;;;20.20;42.62;98276.69;1981246;90;21119;-65
2021/05/15 10:31:20;;;;;;;16.50;3.80;;;;;;;20.42;45.07;98281.31;1996150;89;21029;-65
2021/05/15 10:34:21;;;;;;;11.57;3.45;;;;;;;20.55;41.52;98275.45;1981134;90;21095;-65
2021/05/15 10:37:22;;;;;;;9.88;3.02;;;;;;;20.92;41.91;98274.55;1996191;89;21132;-65
2021/05/15 10:40:25;;;;;;;10.63;3.00;;;;;;;21.11;40.68;98281.28;1981156;90;21526;-67
2021/05/15 10:43:27;;;;;;;10.50;3.00;;;;;;;21.46;41.32;98275.06;1996098;89;21041;-65
2021/05/15 10:46:29;;;;;;;10.90;3.12;;;;;;;21.07;37.18;98283.45;1981403;89;21649;-65
2021/05/15 10:49:30;;;;;;;14.25;3.37;;;;;;;20.99;40.46;98271.99;2002860;89;21029;-65
2021/05/15 10:52:32;;;;;;;;;;;;;;;21.52;39.83;98256.22;1971931;90;21579;-68
2021/05/15 10:55:33;;;;;;;12.67;3.60;;;;;;;22.27;38.53;98269.28;1969776;90;20350;-65
2021/05/15 10:58:35;;;;;;;11.97;3.40;;;;;;;22.31;38.52;98269.22;2002700;89;21060;-66
2021/05/15 11:01:36;;;;;;;10.70;3.40;;;;;;;22.57;38.46;98257.30;1982329;90;21076;-68
2021/05/15 11:04:37;;;;;;;9.95;3.37;;;;;;;22.59;37.53;98249.42;2002872;89;21077;-66
2021/05/15 11:07:40;;;;;;;9.58;3.27;;;;;;;22.41;37.32;98255.15;1982188;90;21611;-65
2021/05/15 11:10:42;;;;;;;12.63;3.58;;;;;;;21.97;37.67;98251.35;2002766;89;21073;-65
2021/05/15 11:13:43;;;;;;;12.58;3.17;;;;;;;21.70;36.79;98247.92;1982180;90;21602;-66
2021/05/15 11:16:44;;;;;;;9.78;3.17;;;;;;;21.48;39.39;98250.39;2002863;89;21073;-65
2021/05/15 11:19:46;;;;;;;11.95;3.33;;;;;;;21.50;37.75;98248.87;1982241;90;21063;-68
2021/05/15 11:22:47;;;;;;;13.65;3.65;;;;;;;21.94;39.95;98234.36;2002806;89;21104;-65
2021/05/15 11:25:49;;;;;;;11.22;3.37;;;;;;;22.94;39.82;98226.10;1982354;90;21075;-65
2021/05/15 11:28:50;;;;;;;10.38;3.30;;;;;;;23.08;38.63;98219.89;2002747;89;21068;-65
2021/05/15 11:31:52;;;;;;;9.08;3.35;;;;;;;23.04;36.01;98219.94;1982500;90;21079;-67
2021/05/15 11:34:53;;;;;;;8.78;3.15;;;;;;;23.47;36.12;98221.87;2002837;89;21626;-65
2021/05/15 11:37:55;;;;;;;11.80;3.47;;;;;;;22.95;38.03;98225.09;1982438;90;21039;-66
2021/05/15 11:40:56;;;;;;;9.78;3.22;;;;;;;22.27;35.89;98230.04;2003006;89;21060;-68
2021/05/15 11:43:58;;;;;;;9.15;3.20;;;;;;;21.70;37.30;98228.73;1969715;90;21152;-65
2021/05/15 11:47:00;;;;;;;11.25;3.10;;;;;;;21.75;38.01;98222.84;2000453;89;21104;-66
2021/05/15 11:50:01;;;;;;;14.18;3.50;;;;;;;22.06;39.23;98220.06;1981220;90;21624;-67
2021/05/15 11:53:03;;;;;;;11.70;3.25;;;;;;;22.04;36.56;98218.58;1996330;89;21070;-68
2021/05/15 11:56:04;;;;;;;11.95;3.02;;;;;;;22.28;37.55;98217.50;1981374;90;21054;-65
2021/05/15 11:59:06;;;;;;;9.40;3.00;;;;;;;22.48;36.01;98215.14;1996168;89;21018;-67
2021/05/15 12:02:08;;;;;;;;;;;;;;;22.12;34.18;98207.83;1965636;91;21037;-66
2021/05/15 12:05:09;;;;;;;9.50;3.00;;;;;;;22.00;36.34;98207.97;1963470;90;20191;-65
2021/05/15 12:08:11;;;;;;;8.80;2.67;;;;;;;22.15;35.23;98204.78;1996241;89;21307;-71
2021/05/15 12:11:12;;;;;;;;;;;;;;;22.84;35.02;98200.51;1983537;90;21635;-65
2021/05/15 12:14:14;;;;;;;11.50;2.90;;;;;;;23.02;34.52;98196.59;1981389;89;20178;-67
2021/05/15 12:17:15;;;;;;;10.43;3.10;;;;;;;22.68;33.44;98198.55;1996187;89;21556;-67
2021/05/15 12:20:17;;;;;;;8.75;3.27;;;;;;;22.38;34.26;98193.23;1981225;90;21139;-68
2021/05/15 12:23:19;;;;;;;10.43;3.30;;;;;;;23.05;36.74;98190.86;1996140;89;21045;-70
2021/05/15 12:26:21;;;;;;;8.73;2.90;;;;;;;24.20;36.19;98186.84;1963065;90;21081;-66
2021/05/15 12:29:22;;;;;;;11.12;2.70;;;;;;;24.59;35.15;98180.55;1996313;89;21077;-68
2021/05/15 12:32:24;;;;;;;13.08;3.25;;;;;;;24.96;35.62;98175.24;1981235;90;21594;-66
2021/05/15 12:35:26;;;;;;;;;;;;;;;25.73;34.98;98174.94;1998552;89;21081;-67
2021/05/15 12:38:27;;;;;;;9.90;3.27;;;;;;;26.25;34.26;98164.37;1994484;89;20213;-65
2021/05/15 12:41:28;;;;;;;11.63;3.02;;;;;;;26.31;32.99;98163.52;1996222;89;21044;-68
2021/05/15 12:44:30;;;;;;;10.40;3.27;;;;;;;26.74;32.56;98167.02;1981348;90;21043;-66
2021/05/15 12:47:31;;;;;;;7.75;2.65;;;;;;;26.80;32.39;98165.33;1996046;88;21627;-67
2021/05/15 12:50:33;;;;;;;8.98;2.40;;;;;;;26.32;30.96;98172.41;1981236;90;21106;-71
2021/05/15 12:53:34;;;;;;;10.40;3.10;;;;;;;25.73;31.13;98169.57;1996298;89;21045;-67
2021/05/15 12:56:36;;;;;;;6.62;2.35;;;;;;;25.73;28.18;98163.70;1981185;90;21566;-68
2021/05/15 12:59:38;;;;;;;10.50;2.72;;;;;;;25.71;29.18;98159.04;1996241;89;21041;-66
2021/05/15 13:02:40;;;;;;;9.58;2.80;;;;;;;26.04;29.96;98154.17;1963166;90;21085;-66
2021/05/15 13:05:42;;;;;;;6.60;2.60;;;;;;;26.67;30.09;98150.05;1996209;89;21052;-68
2021/05/15 13:08:43;;;;;;;10.35;3.10;;;;;;;26.78;29.34;98149.41;1963138;91;21101;-66
2021/05/15 13:11:45;;;;;;;;;;;;;;;27.06;30.68;98142.83;1998529;89;21061;-66
2021/05/15 13:14:46;;;;;;;14.15;3.45;;;;;;;27.25;28.66;98137.53;1994457;89;20221;-66
2021/05/15 13:17:48;;;;;;;8.00;2.70;;;;;;;27.07;29.88;98139.63;1996253;89;21057;-66
2021/05/15 13:20:49;;;;;;;7.53;2.40;;;;;;;26.31;29.89;98144.71;1981202;90;21593;-68
2021/05/15 13:23:51;;;;;;;9.95;2.58;;;;;;;25.89;30.45;98134.24;1996103;89;21069;-66
2021/05/15 13:26:53;;;;;;;8.05;2.50;;;;;;;25.72;30.46;98131.69;1981172;90;21066;-68
2021/05/15 13:29:54;;;;;;;7.45;2.40;;;;;;;25.60;30.70;98132.81;1995948;89;21101;-66
2021/05/15 13:32:56;;;;;;;10.58;3.00;;;;;;;25.47;30.76;98139.00;1981294;90;21075;-66
2021/05/15 13:35:57;;;;;;;7.10;2.65;;;;;;;25.36;29.29;98128.91;1996095;89;21101;-66
2021/05/15 13:38:59;;;;;;;4.20;2.33;;;;;;;25.11;29.93;98129.98;1981098;90;21117;-66
2021/05/15 13:42:00;;;;;;;8.05;2.70;;;;;;;24.96;31.18;98138.22;1996237;89;21045;-66
2021/05/15 13:45:02;;;;;;;12.80;3.50;;;;;;;24.77;31.26;98133.09;1981143;90;21046;-66
2021/05/15 13:48:03;;;;;;;10.03;3.10;;;;;;;24.94;32.20;98134.40;2005030;88;21076;-66
2021/05/15 13:51:05;;;;;;;9.30;2.80;;;;;;;25.04;31.37;98131.30;1993890;89;21601;-66
2021/05/15 13:54:10;;;;;;;9.10;2.83;;;;;;;25.01;31.62;98136.58;2014695;88;21064;-67
2021/05/15 13:57:09;;;;;;;8.30;2.70;;;;;;;25.28;31.94;98127.20;1972651;89;21186;-66
2021/05/15 14:00:11;;;;;;;7.35;2.90;;;;;;;25.32;31.86;98123.64;2014812;88;21135;-69
2021/05/15 14:03:12;;;;;;;7.97;2.83;;;;;;;25.17;31.74;98119.27;1994087;89;21078;-66
2021/05/15 14:06:14;;;;;;;9.10;3.05;;;;;;;25.08;31.69;98124.01;2014666;88;21626;-69
2021/05/15 14:09:15;;;;;;;7.90;3.10;;;;;;;25.38;32.44;98120.94;1994195;89;21043;-69
2021/05/15 14:12:18;;;;;;;8.48;2.90;;;;;;;26.21;32.01;98116.12;2014869;88;21056;-69
2021/05/15 14:15:20;;;;;;;9.90;3.15;;;;;;;26.47;30.61;98115.72;1981004;90;21088;-66